Time,TemperatureF,DewpointF,PressureIn,WindDirection,WindDirectionDegrees,WindSpeedMPH,WindSpeedGustMPH,Humidity,HourlyPrecipIn,Conditions,Clouds,dailyrainin,SolarRadiationWatts/m^2,SoftwareType,DateUTC
2013-05-17 00:03:00,50.9,48.5,29.72,West,277,0.0,0.0,91,0.00,,,-99.99,1.0,HOBO +U30 +Weather +,2013-05-17 04:03:00,
2013-05-17 00:04:00,51.2,48.7,29.72,West,277,0.0,0.0,90,0.00,,,-99.99,1.0,HOBO +U30 +Weather +,2013-05-17 04:04:00,
2013-05-17 00:13:00,50.8,48.4,29.72,West,277,0.0,0.0,91,0.00,,,-99.99,1.0,HOBO +U30 +Weather +,2013-05-17 04:13:00,
2013-05-17 00:14:00,50.1,48.0,29.72,West,277,0.0,0.0,92,0.00,,,-99.99,1.0,HOBO +U30 +Weather +,2013-05-17 04:14:00,
2013-05-17 00:23:00,49.7,47.9,29.72,West,277,0.0,0.0,93,0.00,,,-99.99,1.0,HOBO +U30 +Weather +,2013-05-17 04:23:00,
2013-05-17 00:24:00,50.1,48.0,29.72,West,277,0.0,0.0,92,0.00,,,-99.99,1.0,HOBO +U30 +Weather +,2013-05-17 04:24:00,
2013-05-17 00:33:00,49.4,47.8,29.72,West,277,0.0,0.0,93,0.00,,,-99.99,1.0,HOBO +U30 +Weather +,2013-05-17 04:33:00,
2013-05-17 00:34:00,49.8,48.0,29.72,West,277,0.0,0.0,93,0.00,,,-99.99,1.0,HOBO +U30 +Weather +,2013-05-17 04:34:00,
2013-05-17 00:43:00,49.4,47.7,29.72,West,277,0.0,0.0,93,0.00,,,-99.99,1.0,HOBO +U30 +Weather +,2013-05-17 04:43:00,
2013-05-17 00:53:00,49.1,47.6,29.72,West,277,0.0,0.0,94,0.00,,,-99.99,1.0,HOBO +U30 +Weather +,2013-05-17 04:53:00,
2013-05-17 00:57:00,48.8,47.2,29.72,NE,42,0.0,0.0,94,0.00,,,-99.99,1.0,HOBO +U30 +Weather +,2013-05-17 04:57:00,
2013-05-17 00:58:00,48.7,47.1,29.72,NE,42,0.0,0.0,94,0.00,,,-99.99,1.0,HOBO +U30 +Weather +,2013-05-17 04:58:00,
2013-05-17 01:07:00,48.7,47.2,29.73,ESE,119,0.0,0.0,94,0.00,,,-99.99,1.0,HOBO +U30 +Weather +,2013-05-17 05:07:00,
2013-05-17 01:08:00,48.6,47.1,29.72,ESE,111,0.0,0.0,94,0.00,,,-99.99,1.0,HOBO +U30 +Weather +,2013-05-17 05:08:00,
2013-05-17 01:17:00,48.6,47.0,29.72,ESE,119,0.0,0.0,94,0.00,,,-99.99,1.0,HOBO +U30 +Weather +,2013-05-17 05:17:00,
2013-05-17 01:27:00,48.7,47.3,29.72,SSE,164,0.0,0.0,94,0.00,,,-99.99,1.0,HOBO +U30 +Weather +,2013-05-17 05:27:00,
2013-05-17 01:37:00,48.4,47.0,29.72,SSE,164,0.0,0.0,94,0.00,,,-99.99,1.0,HOBO +U30 +Weather +,2013-05-17 05:37:00,
2013-05-17 01:38:00,50.3,49.0,29.72,ESE,107,0.0,0.0,95,0.00,,,-99.99,1.0,HOBO +U30 +Weather +,2013-05-17 05:38:00,
2013-05-17 01:47:00,51.8,50.1,29.73,ENE,62,0.0,0.9,93,0.00,,,-99.99,1.0,HOBO +U30 +Weather +,2013-05-17 05:47:00,
2013-05-17 01:48:00,50.4,49.0,29.73,ESE,107,0.0,0.0,95,0.00,,,-99.99,1.0,HOBO +U30 +Weather +,2013-05-17 05:48:00,
2013-05-17 01:57:00,52.2,50.2,29.72,NE,41,0.0,0.0,92,0.00,,,-99.99,1.0,HOBO +U30 +Weather +,2013-05-17 05:57:00,
2013-05-17 02:07:00,54.2,49.5,29.73,SE,125,0.0,2.5,83,0.00,,,-99.99,1.0,HOBO +U30 +Weather +,2013-05-17 06:07:00,
2013-05-17 02:08:00,52.7,49.6,29.73,ESE,105,0.0,0.9,89,0.00,,,-99.99,1.0,HOBO +U30 +Weather +,2013-05-17 06:08:00,
2013-05-17 02:17:00,53.9,49.0,29.73,ESE,119,0.0,0.0,83,0.00,,,-99.99,1.0,HOBO +U30 +Weather +,2013-05-17 06:17:00,
2013-05-17 02:18:00,54.2,49.4,29.73,ESE,121,0.0,1.8,83,0.00,,,-99.99,1.0,HOBO +U30 +Weather +,2013-05-17 06:18:00,
2013-05-17 02:27:00,53.0,48.1,29.73,ENE,74,0.0,1.8,83,0.00,,,-99.99,1.0,HOBO +U30 +Weather +,2013-05-17 06:27:00,
2013-05-17 02:28:00,53.9,48.8,29.73,East,87,0.0,0.0,82,0.00,,,-99.99,1.0,HOBO +U30 +Weather +,2013-05-17 06:28:00,
2013-05-17 02:37:00,54.4,48.3,29.74,East,79,0.0,0.0,79,0.00,,,-99.99,1.0,HOBO +U30 +Weather +,2013-05-17 06:37:00,
2013-05-17 02:38:00,53.7,48.4,29.74,East,80,0.0,3.4,82,0.00,,,-99.99,1.0,HOBO +U30 +Weather +,2013-05-17 06:38:00,
2013-05-17 02:47:00,54.8,48.3,29.75,ESE,110,0.0,1.8,78,0.00,,,-99.99,1.0,HOBO +U30 +Weather +,2013-05-17 06:47:00,
2013-05-17 02:48:00,54.7,48.4,29.74,ESE,111,0.0,0.9,79,0.00,,,-99.99,1.0,HOBO +U30 +Weather +,2013-05-17 06:48:00,
2013-05-17 02:57:00,53.9,47.8,29.76,East,97,0.0,0.0,79,0.00,,,-99.99,1.0,HOBO +U30 +Weather +,2013-05-17 06:57:00,
2013-05-17 02:58:00,55.2,48.4,29.74,SSE,167,0.0,1.8,77,0.00,,,-99.99,1.0,HOBO +U30 +Weather +,2013-05-17 06:58:00,
2013-05-17 03:07:00,53.9,47.8,29.75,ESE,119,0.0,4.3,79,0.00,,,-99.99,1.0,HOBO +U30 +Weather +,2013-05-17 07:07:00,
2013-05-17 03:17:00,54.6,47.9,29.76,East,97,0.0,0.0,78,0.00,,,-99.99,1.0,HOBO +U30 +Weather +,2013-05-17 07:17:00,
2013-05-17 03:18:00,53.9,47.6,29.76,East,95,0.0,1.8,78,0.00,,,-99.99,1.0,HOBO +U30 +Weather +,2013-05-17 07:18:00,
2013-05-17 03:27:00,53.0,47.1,29.76,East,84,0.0,0.0,80,0.00,,,-99.99,1.0,HOBO +U30 +Weather +,2013-05-17 07:27:00,
2013-05-17 03:28:00,54.1,47.7,29.76,ESE,118,0.0,0.0,78,0.00,,,-99.99,1.0,HOBO +U30 +Weather +,2013-05-17 07:28:00,
2013-05-17 03:37:00,51.7,46.7,29.76,East,84,0.0,0.0,82,0.00,,,-99.99,1.0,HOBO +U30 +Weather +,2013-05-17 07:37:00,
2013-05-17 03:38:00,52.8,47.1,29.76,East,84,0.0,0.0,80,0.00,,,-99.99,1.0,HOBO +U30 +Weather +,2013-05-17 07:38:00,
2013-05-17 03:47:00,51.8,46.8,29.78,ESE,107,0.0,0.0,82,0.00,,,-99.99,1.0,HOBO +U30 +Weather +,2013-05-17 07:47:00,
2013-05-17 03:48:00,51.9,47.1,29.76,East,100,0.0,2.5,83,0.00,,,-99.99,1.0,HOBO +U30 +Weather +,2013-05-17 07:48:00,
2013-05-17 03:57:00,50.5,46.3,29.78,ESE,107,0.0,0.0,85,0.00,,,-99.99,1.0,HOBO +U30 +Weather +,2013-05-17 07:57:00,
2013-05-17 03:58:00,51.6,46.7,29.78,ESE,107,0.0,0.0,83,0.00,,,-99.99,1.0,HOBO +U30 +Weather +,2013-05-17 07:58:00,
2013-05-17 04:07:00,49.7,46.2,29.78,ESE,107,0.0,0.0,87,0.00,,,-99.99,1.0,HOBO +U30 +Weather +,2013-05-17 08:07:00,
2013-05-17 04:08:00,50.0,46.0,29.78,ESE,107,0.0,0.0,86,0.00,,,-99.99,1.0,HOBO +U30 +Weather +,2013-05-17 08:08:00,
2013-05-17 04:17:00,48.8,45.3,29.78,ESE,107,0.0,0.0,87,0.00,,,-99.99,1.0,HOBO +U30 +Weather +,2013-05-17 08:17:00,
2013-05-17 04:18:00,50.0,46.3,29.78,ESE,107,0.0,0.0,87,0.00,,,-99.99,1.0,HOBO +U30 +Weather +,2013-05-17 08:18:00,
2013-05-17 04:27:00,47.5,44.9,29.80,ESE,107,0.0,0.0,90,0.00,,,-99.99,1.0,HOBO +U30 +Weather +,2013-05-17 08:27:00,
2013-05-17 04:28:00,48.3,44.9,29.79,ESE,107,0.0,0.0,87,0.00,,,-99.99,1.0,HOBO +U30 +Weather +,2013-05-17 08:28:00,
2013-05-17 04:38:00,47.6,44.9,29.80,ESE,107,0.0,0.0,90,0.00,,,-99.99,1.0,HOBO +U30 +Weather +,2013-05-17 08:38:00,
2013-05-17 04:42:00,46.3,43.8,29.80,ESE,107,0.0,0.0,90,0.00,,,-99.99,1.0,HOBO +U30 +Weather +,2013-05-17 08:42:00,
2013-05-17 04:43:00,46.1,43.6,29.80,ESE,107,0.0,0.0,91,0.00,,,-99.99,1.0,HOBO +U30 +Weather +,2013-05-17 08:43:00,
2013-05-17 04:52:00,45.1,43.0,29.81,ESE,107,0.0,0.0,92,0.00,,,-99.99,1.0,HOBO +U30 +Weather +,2013-05-17 08:52:00,
2013-05-17 04:53:00,46.0,43.6,29.80,ESE,107,0.0,0.0,91,0.00,,,-99.99,1.0,HOBO +U30 +Weather +,2013-05-17 08:53:00,
2013-05-17 05:02:00,44.6,42.9,29.81,ESE,107,0.0,0.0,93,0.00,,,-99.99,1.0,HOBO +U30 +Weather +,2013-05-17 09:02:00,
2013-05-17 05:03:00,45.2,43.2,29.81,ESE,107,0.0,0.0,92,0.00,,,-99.99,1.0,HOBO +U30 +Weather +,2013-05-17 09:03:00,
2013-05-17 05:12:00,44.4,42.8,29.81,ESE,107,0.0,0.0,94,0.00,,,-99.99,2.0,HOBO +U30 +Weather +,2013-05-17 09:12:00,
2013-05-17 05:13:00,44.6,42.9,29.81,ESE,107,0.0,0.0,93,0.00,,,-99.99,1.0,HOBO +U30 +Weather +,2013-05-17 09:13:00,
2013-05-17 05:22:00,44.4,42.9,29.82,ESE,107,0.0,0.0,94,0.00,,,-99.99,4.0,HOBO +U30 +Weather +,2013-05-17 09:22:00,
2013-05-17 05:23:00,44.3,42.7,29.82,ESE,107,0.0,0.0,94,0.00,,,-99.99,2.0,HOBO +U30 +Weather +,2013-05-17 09:23:00,
2013-05-17 05:32:00,44.2,42.7,29.82,ESE,107,0.0,0.0,94,0.00,,,-99.99,9.0,HOBO +U30 +Weather +,2013-05-17 09:32:00,
2013-05-17 05:33:00,44.3,42.9,29.82,ESE,107,0.0,0.0,94,0.00,,,-99.99,6.0,HOBO +U30 +Weather +,2013-05-17 09:33:00,
2013-05-17 05:42:00,44.4,42.9,29.82,ESE,107,0.0,0.0,94,0.00,,,-99.99,14.0,HOBO +U30 +Weather +,2013-05-17 09:42:00,
2013-05-17 05:43:00,44.2,42.8,29.82,ESE,107,0.0,0.0,94,0.00,,,-99.99,9.0,HOBO +U30 +Weather +,2013-05-17 09:43:00,
2013-05-17 05:52:00,44.0,42.5,29.83,ESE,107,0.0,0.0,94,0.00,,,-99.99,18.0,HOBO +U30 +Weather +,2013-05-17 09:52:00,
2013-05-17 05:53:00,44.5,43.0,29.82,ESE,107,0.0,0.0,94,0.00,,,-99.99,14.0,HOBO +U30 +Weather +,2013-05-17 09:53:00,
2013-05-17 06:02:00,45.1,43.6,29.84,ESE,107,0.0,0.0,94,0.00,,,-99.99,22.0,HOBO +U30 +Weather +,2013-05-17 10:02:00,
2013-05-17 06:03:00,44.1,42.7,29.83,ESE,107,0.0,0.0,94,0.00,,,-99.99,18.0,HOBO +U30 +Weather +,2013-05-17 10:03:00,
2013-05-17 06:12:00,45.7,44.1,29.84,ESE,107,0.0,0.0,94,0.00,,,-99.99,24.0,HOBO +U30 +Weather +,2013-05-17 10:12:00,
2013-05-17 06:13:00,45.2,43.7,29.84,ESE,107,0.0,0.0,94,0.00,,,-99.99,22.0,HOBO +U30 +Weather +,2013-05-17 10:13:00,
2013-05-17 06:22:00,46.7,44.9,29.84,ESE,107,0.0,0.0,93,0.00,,,-99.99,118.0,HOBO +U30 +Weather +,2013-05-17 10:22:00,
2013-05-17 06:23:00,46.1,44.5,29.85,ESE,107,0.0,0.0,94,0.00,,,-99.99,26.0,HOBO +U30 +Weather +,2013-05-17 10:23:00,
2013-05-17 06:32:00,48.4,46.5,29.85,ESE,107,0.0,0.0,92,0.00,,,-99.99,29.0,HOBO +U30 +Weather +,2013-05-17 10:32:00,
2013-05-17 06:33:00,46.8,44.9,29.84,ESE,107,0.0,0.0,93,0.00,,,-99.99,122.0,HOBO +U30 +Weather +,2013-05-17 10:33:00,
2013-05-17 06:42:00,50.0,47.6,29.85,ESE,107,0.0,0.0,91,0.00,,,-99.99,161.0,HOBO +U30 +Weather +,2013-05-17 10:42:00,
2013-05-17 06:43:00,48.8,46.8,29.85,ESE,107,0.0,0.0,92,0.00,,,-99.99,29.0,HOBO +U30 +Weather +,2013-05-17 10:43:00,
2013-05-17 06:52:00,52.4,48.5,29.86,NE,45,0.0,2.5,86,0.00,,,-99.99,188.0,HOBO +U30 +Weather +,2013-05-17 10:52:00,
2013-05-17 06:53:00,50.3,47.7,29.85,ESE,107,0.0,0.0,90,0.00,,,-99.99,166.0,HOBO +U30 +Weather +,2013-05-17 10:53:00,
2013-05-17 07:02:00,55.0,48.7,29.86,NE,41,0.0,0.0,79,0.00,,,-99.99,216.0,HOBO +U30 +Weather +,2013-05-17 11:02:00,
2013-05-17 07:03:00,53.2,48.3,29.86,East,84,0.0,0.0,83,0.00,,,-99.99,194.0,HOBO +U30 +Weather +,2013-05-17 11:03:00,
2013-05-17 07:12:00,56.3,48.9,29.86,East,98,0.0,0.0,76,0.00,,,-99.99,244.0,HOBO +U30 +Weather +,2013-05-17 11:12:00,
2013-05-17 07:13:00,55.3,49.0,29.86,East,93,0.0,0.0,79,0.00,,,-99.99,222.0,HOBO +U30 +Weather +,2013-05-17 11:13:00,
2013-05-17 07:22:00,57.4,49.0,29.88,SE,133,0.0,0.0,73,0.00,,,-99.99,273.0,HOBO +U30 +Weather +,2013-05-17 11:22:00,
2013-05-17 07:23:00,56.3,48.7,29.88,ESE,115,0.0,1.8,75,0.00,,,-99.99,249.0,HOBO +U30 +Weather +,2013-05-17 11:23:00,
2013-05-17 07:32:00,57.8,47.9,29.88,East,84,0.0,2.5,69,0.00,,,-99.99,299.0,HOBO +U30 +Weather +,2013-05-17 11:32:00,
2013-05-17 07:33:00,57.5,48.7,29.88,East,84,0.0,0.9,72,0.00,,,-99.99,278.0,HOBO +U30 +Weather +,2013-05-17 11:33:00,
2013-05-17 07:42:00,57.9,46.8,29.88,ESE,107,0.0,1.8,66,0.00,,,-99.99,329.0,HOBO +U30 +Weather +,2013-05-17 11:42:00,
2013-05-17 07:43:00,57.9,47.9,29.88,ENE,63,0.0,2.5,69,0.00,,,-99.99,307.0,HOBO +U30 +Weather +,2013-05-17 11:43:00,
2013-05-17 07:52:00,58.1,46.4,29.88,ENE,76,0.9,5.1,64,0.00,,,-99.99,356.0,HOBO +U30 +Weather +,2013-05-17 11:52:00,
2013-05-17 07:53:00,58.3,47.5,29.88,ENE,73,0.0,0.9,67,0.00,,,-99.99,334.0,HOBO +U30 +Weather +,2013-05-17 11:53:00,
2013-05-17 08:02:00,58.5,46.2,29.88,ESE,107,1.8,5.1,63,0.00,,,-99.99,382.0,HOBO +U30 +Weather +,2013-05-17 12:02:00,
2013-05-17 08:03:00,58.2,46.2,29.88,ENE,60,1.8,5.1,64,0.00,,,-99.99,366.0,HOBO +U30 +Weather +,2013-05-17 12:03:00,
2013-05-17 08:12:00,59.0,45.9,29.88,East,86,3.4,11.9,61,0.00,,,-99.99,418.0,HOBO +U30 +Weather +,2013-05-17 12:12:00,
2013-05-17 08:13:00,58.7,46.2,29.88,East,93,0.9,8.5,63,0.00,,,-99.99,393.0,HOBO +U30 +Weather +,2013-05-17 12:13:00,
2013-05-17 08:22:00,59.5,46.0,29.88,NE,44,0.9,6.7,61,0.00,,,-99.99,441.0,HOBO +U30 +Weather +,2013-05-17 12:22:00,
2013-05-17 08:23:00,59.1,46.2,29.88,ENE,77,0.9,6.0,62,0.00,,,-99.99,427.0,HOBO +U30 +Weather +,2013-05-17 12:23:00,
2013-05-17 08:32:00,60.0,46.4,29.88,ESE,102,2.5,4.3,60,0.00,,,-99.99,462.0,HOBO +U30 +Weather +,2013-05-17 12:32:00,
2013-05-17 08:33:00,59.6,46.6,29.88,ENE,59,1.8,4.3,61,0.00,,,-99.99,453.0,HOBO +U30 +Weather +,2013-05-17 12:33:00,
2013-05-17 08:42:00,60.7,46.6,29.88,East,97,0.9,3.4,59,0.00,,,-99.99,502.0,HOBO +U30 +Weather +,2013-05-17 12:42:00,
2013-05-17 08:43:00,60.1,45.9,29.88,ESE,111,1.8,9.4,59,0.00,,,-99.99,478.0,HOBO +U30 +Weather +,2013-05-17 12:43:00,
2013-05-17 08:52:00,60.5,46.5,29.88,NNE,32,0.0,2.5,59,0.00,,,-99.99,519.0,HOBO +U30 +Weather +,2013-05-17 12:52:00,
2013-05-17 08:53:00,60.9,46.5,29.88,East,79,1.8,10.3,59,0.00,,,-99.99,499.0,HOBO +U30 +Weather +,2013-05-17 12:53:00,
2013-05-17 09:02:00,61.5,45.6,29.88,NE,52,3.4,11.9,55,0.00,,,-99.99,558.0,HOBO +U30 +Weather +,2013-05-17 13:02:00,
2013-05-17 09:03:00,61.2,46.7,29.88,NE,46,0.0,2.5,58,0.00,,,-99.99,474.0,HOBO +U30 +Weather +,2013-05-17 13:03:00,
2013-05-17 09:12:00,61.1,45.0,29.88,NE,42,3.4,11.0,55,0.00,,,-99.99,501.0,HOBO +U30 +Weather +,2013-05-17 13:12:00,
2013-05-17 09:13:00,60.8,45.4,29.88,NE,45,2.5,9.4,56,0.00,,,-99.99,598.0,HOBO +U30 +Weather +,2013-05-17 13:13:00,
2013-05-17 09:22:00,61.2,45.8,29.88,East,80,0.9,4.3,56,0.00,,,-99.99,561.0,HOBO +U30 +Weather +,2013-05-17 13:22:00,
2013-05-17 09:23:00,60.9,44.8,29.88,ENE,60,0.9,7.6,55,0.00,,,-99.99,488.0,HOBO +U30 +Weather +,2013-05-17 13:23:00,
2013-05-17 09:32:00,61.0,44.7,29.88,NE,51,3.4,6.7,54,0.00,,,-99.99,654.0,HOBO +U30 +Weather +,2013-05-17 13:32:00,
2013-05-17 09:33:00,61.0,44.7,29.88,ENE,72,3.4,9.4,54,0.00,,,-99.99,518.0,HOBO +U30 +Weather +,2013-05-17 13:33:00,
2013-05-17 09:42:00,61.3,44.7,29.89,NE,44,2.5,5.1,54,0.00,,,-99.99,248.0,HOBO +U30 +Weather +,2013-05-17 13:42:00,
2013-05-17 09:43:00,61.4,44.4,29.89,NE,35,3.4,10.3,53,0.00,,,-99.99,626.0,HOBO +U30 +Weather +,2013-05-17 13:43:00,
2013-05-17 09:52:00,61.8,45.2,29.90,NE,55,0.9,5.1,54,0.00,,,-99.99,657.0,HOBO +U30 +Weather +,2013-05-17 13:52:00,
2013-05-17 09:53:00,61.5,44.7,29.89,ENE,73,2.5,8.5,53,0.00,,,-99.99,674.0,HOBO +U30 +Weather +,2013-05-17 13:53:00,
2013-05-17 10:02:00,62.5,45.4,29.90,ENE,74,2.5,6.7,53,0.00,,,-99.99,756.0,HOBO +U30 +Weather +,2013-05-17 14:02:00,
2013-05-17 10:03:00,62.5,46.2,29.90,NNW,336,0.0,3.4,55,0.00,,,-99.99,708.0,HOBO +U30 +Weather +,2013-05-17 14:03:00,
2013-05-17 10:12:00,61.4,44.0,29.90,NNE,22,2.5,6.0,52,0.00,,,-99.99,577.0,HOBO +U30 +Weather +,2013-05-17 14:12:00,
2013-05-17 10:13:00,62.3,45.8,29.90,East,98,3.4,7.6,54,0.00,,,-99.99,766.0,HOBO +U30 +Weather +,2013-05-17 14:13:00,
2013-05-17 10:22:00,62.6,44.0,29.90,NE,35,1.8,6.0,50,0.00,,,-99.99,707.0,HOBO +U30 +Weather +,2013-05-17 14:22:00,
2013-05-17 10:23:00,61.3,43.5,29.90,East,100,6.0,10.3,51,0.00,,,-99.99,654.0,HOBO +U30 +Weather +,2013-05-17 14:23:00,
2013-05-17 10:24:00,62.4,43.9,29.90,NNE,32,1.8,3.4,50,0.00,,,-99.99,758.0,HOBO +U30 +Weather +,2013-05-17 14:24:00,
2013-05-17 10:32:00,63.7,44.3,29.91,ENE,59,3.4,8.5,49,0.00,,,-99.99,767.0,HOBO +U30 +Weather +,2013-05-17 14:32:00,
2013-05-17 10:33:00,63.7,44.3,29.91,NE,49,2.5,5.1,49,0.00,,,-99.99,759.0,HOBO +U30 +Weather +,2013-05-17 14:33:00,
2013-05-17 10:34:00,62.9,45.4,29.90,ENE,73,0.0,1.8,52,0.00,,,-99.99,772.0,HOBO +U30 +Weather +,2013-05-17 14:34:00,
2013-05-17 10:42:00,64.0,44.0,29.91,ENE,60,2.5,6.0,48,0.00,,,-99.99,693.0,HOBO +U30 +Weather +,2013-05-17 14:42:00,
2013-05-17 10:43:00,63.5,44.2,29.91,ENE,74,1.8,5.1,49,0.00,,,-99.99,719.0,HOBO +U30 +Weather +,2013-05-17 14:43:00,
2013-05-17 10:52:00,62.3,43.1,29.91,ENE,66,2.5,6.0,49,0.00,,,-99.99,729.0,HOBO +U30 +Weather +,2013-05-17 14:52:00,
2013-05-17 10:53:00,64.0,44.3,29.91,West,275,0.9,6.0,48,0.00,,,-99.99,218.0,HOBO +U30 +Weather +,2013-05-17 14:53:00,
2013-05-17 11:02:00,64.2,44.6,29.92,NNE,18,1.8,6.0,49,0.00,,,-99.99,764.0,HOBO +U30 +Weather +,2013-05-17 15:02:00,
2013-05-17 11:03:00,62.9,44.3,29.91,NNE,32,2.5,6.0,50,0.00,,,-99.99,771.0,HOBO +U30 +Weather +,2013-05-17 15:03:00,
2013-05-17 11:12:00,63.3,43.6,29.92,ENE,62,3.4,7.6,48,0.00,,,-99.99,753.0,HOBO +U30 +Weather +,2013-05-17 15:12:00,
2013-05-17 11:13:00,64.7,45.2,29.92,NE,39,2.5,6.7,49,0.00,,,-99.99,746.0,HOBO +U30 +Weather +,2013-05-17 15:13:00,
2013-05-17 11:22:00,63.1,43.9,29.92,NE,52,3.4,7.6,49,0.00,,,-99.99,379.0,HOBO +U30 +Weather +,2013-05-17 15:22:00,
2013-05-17 11:23:00,62.7,42.7,29.92,ESE,110,5.1,9.4,47,0.00,,,-99.99,717.0,HOBO +U30 +Weather +,2013-05-17 15:23:00,
2013-05-17 11:32:00,63.4,44.0,29.93,ENE,77,2.5,6.0,49,0.00,,,-99.99,752.0,HOBO +U30 +Weather +,2013-05-17 15:32:00,
2013-05-17 11:33:00,63.6,44.8,29.93,ENE,76,2.5,7.6,50,0.00,,,-99.99,697.0,HOBO +U30 +Weather +,2013-05-17 15:33:00,
2013-05-17 11:42:00,63.8,43.6,29.93,SE,132,2.5,6.0,47,0.00,,,-99.99,803.0,HOBO +U30 +Weather +,2013-05-17 15:42:00,
2013-05-17 11:43:00,64.2,44.5,29.92,ENE,65,0.9,3.4,48,0.00,,,-99.99,918.0,HOBO +U30 +Weather +,2013-05-17 15:43:00,
2013-05-17 11:52:00,64.7,44.0,29.93,ESE,110,0.9,4.3,47,0.00,,,-99.99,898.0,HOBO +U30 +Weather +,2013-05-17 15:52:00,
2013-05-17 11:53:00,63.4,43.2,29.93,SE,139,2.5,6.7,47,0.00,,,-99.99,824.0,HOBO +U30 +Weather +,2013-05-17 15:53:00,
2013-05-17 12:02:00,63.8,42.9,29.93,ESE,102,5.1,11.9,46,0.00,,,-99.99,631.0,HOBO +U30 +Weather +,2013-05-17 16:02:00,
2013-05-17 12:03:00,64.5,43.3,29.93,ESE,114,2.5,6.0,46,0.00,,,-99.99,834.0,HOBO +U30 +Weather +,2013-05-17 16:03:00,
2013-05-17 12:12:00,63.6,42.7,29.93,East,90,5.1,11.0,46,0.00,,,-99.99,827.0,HOBO +U30 +Weather +,2013-05-17 16:12:00,
2013-05-17 12:13:00,63.5,42.7,29.93,ESE,122,5.1,8.5,46,0.00,,,-99.99,763.0,HOBO +U30 +Weather +,2013-05-17 16:13:00,
2013-05-17 12:22:00,64.4,42.9,29.93,SE,128,2.5,7.6,45,0.00,,,-99.99,813.0,HOBO +U30 +Weather +,2013-05-17 16:22:00,
2013-05-17 12:23:00,63.6,42.7,29.92,ESE,107,4.3,9.4,46,0.00,,,-99.99,841.0,HOBO +U30 +Weather +,2013-05-17 16:23:00,
2013-05-17 12:32:00,63.6,42.2,29.93,ESE,104,6.0,9.4,45,0.00,,,-99.99,829.0,HOBO +U30 +Weather +,2013-05-17 16:32:00,
2013-05-17 12:33:00,62.7,42.9,29.93,East,97,0.9,6.0,48,0.00,,,-99.99,723.0,HOBO +U30 +Weather +,2013-05-17 16:33:00,
2013-05-17 12:42:00,64.4,43.3,29.93,East,98,2.5,6.7,46,0.00,,,-99.99,939.0,HOBO +U30 +Weather +,2013-05-17 16:42:00,
2013-05-17 12:43:00,63.3,42.9,29.93,ENE,60,2.5,5.1,47,0.00,,,-99.99,809.0,HOBO +U30 +Weather +,2013-05-17 16:43:00,
2013-05-17 12:52:00,63.2,41.8,29.92,ESE,117,6.0,10.3,45,0.00,,,-99.99,857.0,HOBO +U30 +Weather +,2013-05-17 16:52:00,
2013-05-17 12:53:00,63.7,42.7,29.93,SE,128,3.4,9.4,46,0.00,,,-99.99,927.0,HOBO +U30 +Weather +,2013-05-17 16:53:00,
2013-05-17 13:02:00,63.4,42.2,29.93,ESE,110,5.1,9.4,45,0.00,,,-99.99,667.0,HOBO +U30 +Weather +,2013-05-17 17:02:00,
2013-05-17 13:03:00,62.8,41.7,29.93,SE,124,6.0,9.4,45,0.00,,,-99.99,804.0,HOBO +U30 +Weather +,2013-05-17 17:03:00,
2013-05-17 13:12:00,65.0,42.7,29.93,ESE,102,4.3,10.3,44,0.00,,,-99.99,1063.0,HOBO +U30 +Weather +,2013-05-17 17:12:00,
2013-05-17 13:13:00,63.0,41.9,29.93,SE,126,6.0,11.0,45,0.00,,,-99.99,882.0,HOBO +U30 +Weather +,2013-05-17 17:13:00,
2013-05-17 13:22:00,65.0,42.5,29.93,East,95,4.3,11.9,43,0.00,,,-99.99,401.0,HOBO +U30 +Weather +,2013-05-17 17:22:00,
2013-05-17 13:23:00,64.6,43.0,29.93,SE,129,2.5,7.6,45,0.00,,,-99.99,1033.0,HOBO +U30 +Weather +,2013-05-17 17:23:00,
2013-05-17 13:32:00,62.5,42.5,29.93,SE,132,2.5,7.6,47,0.00,,,-99.99,264.0,HOBO +U30 +Weather +,2013-05-17 17:32:00,
2013-05-17 13:33:00,63.1,41.9,29.93,East,100,5.1,9.4,45,0.00,,,-99.99,1041.0,HOBO +U30 +Weather +,2013-05-17 17:33:00,
2013-05-17 13:42:00,62.5,42.6,29.94,East,98,0.0,1.8,48,0.00,,,-99.99,326.0,HOBO +U30 +Weather +,2013-05-17 17:42:00,
2013-05-17 13:43:00,62.4,41.6,29.94,East,101,6.0,13.6,46,0.00,,,-99.99,358.0,HOBO +U30 +Weather +,2013-05-17 17:43:00,
2013-05-17 13:52:00,62.3,42.5,29.94,South,177,0.0,3.4,48,0.00,,,-99.99,326.0,HOBO +U30 +Weather +,2013-05-17 17:52:00,
2013-05-17 13:53:00,62.3,42.3,29.94,ESE,121,1.8,6.7,47,0.00,,,-99.99,286.0,HOBO +U30 +Weather +,2013-05-17 17:53:00,
2013-05-17 14:02:00,63.1,43.3,29.94,SE,126,1.8,5.1,48,0.00,,,-99.99,448.0,HOBO +U30 +Weather +,2013-05-17 18:02:00,
2013-05-17 14:03:00,62.6,42.1,29.94,ESE,104,1.8,8.5,47,0.00,,,-99.99,427.0,HOBO +U30 +Weather +,2013-05-17 18:03:00,
2013-05-17 14:12:00,63.7,41.9,29.94,ESE,107,2.5,6.7,44,0.00,,,-99.99,427.0,HOBO +U30 +Weather +,2013-05-17 18:12:00,
2013-05-17 14:13:00,62.9,41.7,29.94,South,187,8.5,11.9,45,0.00,,,-99.99,1057.0,HOBO +U30 +Weather +,2013-05-17 18:13:00,
2013-05-17 14:22:00,64.2,42.0,29.95,ESE,105,4.3,8.5,44,0.00,,,-99.99,1119.0,HOBO +U30 +Weather +,2013-05-17 18:22:00,
2013-05-17 14:23:00,65.1,44.4,29.94,SSE,150,0.0,3.4,47,0.00,,,-99.99,1029.0,HOBO +U30 +Weather +,2013-05-17 18:23:00,
2013-05-17 14:32:00,64.3,42.6,29.95,SE,129,1.8,6.7,45,0.00,,,-99.99,368.0,HOBO +U30 +Weather +,2013-05-17 18:32:00,
2013-05-17 14:33:00,65.8,43.0,29.95,SE,126,0.9,6.7,43,0.00,,,-99.99,924.0,HOBO +U30 +Weather +,2013-05-17 18:33:00,
2013-05-17 14:42:00,65.8,43.4,29.95,ESE,121,0.9,6.7,44,0.00,,,-99.99,436.0,HOBO +U30 +Weather +,2013-05-17 18:42:00,
2013-05-17 14:43:00,64.0,42.0,29.95,SSE,164,0.9,6.7,44,0.00,,,-99.99,594.0,HOBO +U30 +Weather +,2013-05-17 18:43:00,
2013-05-17 14:52:00,65.4,43.1,29.95,South,185,0.9,6.7,44,0.00,,,-99.99,352.0,HOBO +U30 +Weather +,2013-05-17 18:52:00,
2013-05-17 14:53:00,65.9,43.0,29.95,SSE,161,0.9,6.7,43,0.00,,,-99.99,461.0,HOBO +U30 +Weather +,2013-05-17 18:53:00,
2013-05-17 15:02:00,65.4,44.6,29.95,SW,218,0.9,6.7,47,0.00,,,-99.99,351.0,HOBO +U30 +Weather +,2013-05-17 19:02:00,
2013-05-17 15:03:00,64.4,42.8,29.95,East,95,0.9,6.7,45,0.00,,,-99.99,318.0,HOBO +U30 +Weather +,2013-05-17 19:03:00,
2013-05-17 15:12:00,63.4,42.6,29.96,ESE,105,0.9,6.7,46,0.00,,,-99.99,243.0,HOBO +U30 +Weather +,2013-05-17 19:12:00,
2013-05-17 15:13:00,65.4,43.3,29.95,SW,226,0.9,6.7,44,0.00,,,-99.99,283.0,HOBO +U30 +Weather +,2013-05-17 19:13:00,
2013-05-17 15:22:00,61.7,42.2,29.96,SE,125,0.9,6.7,48,0.00,,,-99.99,257.0,HOBO +U30 +Weather +,2013-05-17 19:22:00,
2013-05-17 15:23:00,62.5,42.2,29.96,ESE,118,0.9,6.7,47,0.00,,,-99.99,299.0,HOBO +U30 +Weather +,2013-05-17 19:23:00,
2013-05-17 15:32:00,62.2,41.9,29.96,ESE,117,0.9,6.7,47,0.00,,,-99.99,211.0,HOBO +U30 +Weather +,2013-05-17 19:32:00,
2013-05-17 15:33:00,62.0,42.5,29.96,East,101,0.9,6.7,48,0.00,,,-99.99,294.0,HOBO +U30 +Weather +,2013-05-17 19:33:00,
2013-05-17 15:42:00,62.5,42.1,29.96,ESE,107,0.9,6.7,47,0.00,,,-99.99,262.0,HOBO +U30 +Weather +,2013-05-17 19:42:00,
2013-05-17 15:43:00,61.8,42.2,29.97,ESE,112,0.9,6.7,48,0.00,,,-99.99,428.0,HOBO +U30 +Weather +,2013-05-17 19:43:00,
2013-05-17 15:52:00,64.1,43.2,29.97,ESE,111,0.9,6.7,46,0.00,,,-99.99,861.0,HOBO +U30 +Weather +,2013-05-17 19:52:00,
2013-05-17 15:53:00,62.7,42.7,29.96,ENE,73,0.9,6.7,47,0.00,,,-99.99,262.0,HOBO +U30 +Weather +,2013-05-17 19:53:00,
2013-05-17 16:02:00,61.0,41.8,29.97,ESE,114,0.9,6.7,49,0.00,,,-99.99,351.0,HOBO +U30 +Weather +,2013-05-17 20:02:00,
2013-05-17 16:03:00,63.2,43.1,29.97,ESE,107,0.9,6.7,47,0.00,,,-99.99,663.0,HOBO +U30 +Weather +,2013-05-17 20:03:00,
2013-05-17 16:12:00,61.3,42.1,29.98,SE,125,0.9,6.7,49,0.00,,,-99.99,191.0,HOBO +U30 +Weather +,2013-05-17 20:12:00,
2013-05-17 16:13:00,61.2,42.2,29.98,ESE,115,0.9,6.7,49,0.00,,,-99.99,261.0,HOBO +U30 +Weather +,2013-05-17 20:13:00,
2013-05-17 16:22:00,63.4,43.5,29.98,East,88,0.9,6.7,48,0.00,,,-99.99,637.0,HOBO +U30 +Weather +,2013-05-17 20:22:00,
2013-05-17 16:23:00,61.3,42.8,29.98,East,101,0.9,6.7,50,0.00,,,-99.99,233.0,HOBO +U30 +Weather +,2013-05-17 20:23:00,
2013-05-17 16:32:00,62.5,43.4,29.98,SSW,197,0.9,6.7,49,0.00,,,-99.99,613.0,HOBO +U30 +Weather +,2013-05-17 20:32:00,
2013-05-17 16:33:00,62.8,43.2,29.98,SE,136,0.9,6.7,48,0.00,,,-99.99,141.0,HOBO +U30 +Weather +,2013-05-17 20:33:00,
2013-05-17 16:42:00,61.9,43.2,29.98,SSW,195,0.9,6.7,50,0.00,,,-99.99,193.0,HOBO +U30 +Weather +,2013-05-17 20:42:00,
2013-05-17 16:43:00,62.4,43.5,29.98,SE,135,0.9,6.7,49,0.00,,,-99.99,613.0,HOBO +U30 +Weather +,2013-05-17 20:43:00,
2013-05-17 16:52:00,62.2,43.8,29.99,ESE,102,0.9,6.7,50,0.00,,,-99.99,137.0,HOBO +U30 +Weather +,2013-05-17 20:52:00,
2013-05-17 16:53:00,61.8,43.8,29.99,SSW,206,0.9,6.7,51,0.00,,,-99.99,583.0,HOBO +U30 +Weather +,2013-05-17 20:53:00,
2013-05-17 17:02:00,61.2,43.1,30.00,East,98,0.9,6.7,51,0.00,,,-99.99,99.0,HOBO +U30 +Weather +,2013-05-17 21:02:00,
2013-05-17 17:03:00,62.1,43.6,29.99,WSW,253,0.9,6.7,50,0.00,,,-99.99,164.0,HOBO +U30 +Weather +,2013-05-17 21:03:00,
2013-05-17 17:04:00,60.8,42.7,30.01,ESE,110,0.9,6.7,51,0.00,,,-99.99,97.0,HOBO +U30 +Weather +,2013-05-17 21:04:00,
2013-05-17 17:12:00,60.9,44.0,30.01,ENE,65,0.9,6.7,53,0.00,,,-99.99,101.0,HOBO +U30 +Weather +,2013-05-17 21:12:00,
2013-05-17 17:13:00,61.0,44.0,30.01,NE,45,0.9,6.7,53,0.00,,,-99.99,91.0,HOBO +U30 +Weather +,2013-05-17 21:13:00,
2013-05-17 17:14:00,60.5,42.9,30.00,ESE,108,0.9,6.7,52,0.00,,,-99.99,184.0,HOBO +U30 +Weather +,2013-05-17 21:14:00,
2013-05-17 17:22:00,62.1,43.9,30.01,ESE,112,0.9,6.7,51,0.00,,,-99.99,172.0,HOBO +U30 +Weather +,2013-05-17 21:22:00,
2013-05-17 17:23:00,60.9,43.7,30.01,SSE,168,0.9,6.7,53,0.00,,,-99.99,89.0,HOBO +U30 +Weather +,2013-05-17 21:23:00,
2013-05-17 17:32:00,62.5,43.5,30.01,South,174,0.9,6.7,49,0.00,,,-99.99,89.0,HOBO +U30 +Weather +,2013-05-17 21:32:00,
2013-05-17 17:33:00,62.1,44.0,30.01,ESE,108,0.9,6.7,51,0.00,,,-99.99,224.0,HOBO +U30 +Weather +,2013-05-17 21:33:00,
2013-05-17 17:42:00,62.7,43.1,30.01,ESE,111,0.9,6.7,48,0.00,,,-99.99,384.0,HOBO +U30 +Weather +,2013-05-17 21:42:00,
2013-05-17 17:43:00,61.7,43.3,30.02,South,175,0.9,6.7,50,0.00,,,-99.99,234.0,HOBO +U30 +Weather +,2013-05-17 21:43:00,
2013-05-17 17:52:00,62.0,42.8,30.02,South,185,0.9,6.7,49,0.00,,,-99.99,87.0,HOBO +U30 +Weather +,2013-05-17 21:52:00,
2013-05-17 17:53:00,62.2,43.1,30.02,WNW,286,0.9,6.7,49,0.00,,,-99.99,119.0,HOBO +U30 +Weather +,2013-05-17 21:53:00,
2013-05-17 18:02:00,63.8,44.9,30.03,East,90,0.9,6.7,50,0.00,,,-99.99,328.0,HOBO +U30 +Weather +,2013-05-17 22:02:00,
2013-05-17 18:03:00,61.8,43.0,30.03,SSW,195,0.9,6.7,50,0.00,,,-99.99,341.0,HOBO +U30 +Weather +,2013-05-17 22:03:00,
2013-05-17 18:12:00,61.2,44.0,30.03,East,90,0.9,6.7,52,0.00,,,-99.99,71.0,HOBO +U30 +Weather +,2013-05-17 22:12:00,
2013-05-17 18:13:00,64.3,44.1,30.03,East,90,0.9,6.7,47,0.00,,,-99.99,323.0,HOBO +U30 +Weather +,2013-05-17 22:13:00,
2013-05-17 18:22:00,60.9,44.5,30.03,East,90,0.9,6.7,54,0.00,,,-99.99,177.0,HOBO +U30 +Weather +,2013-05-17 22:22:00,
2013-05-17 18:23:00,60.8,44.0,30.04,East,90,0.9,6.7,53,0.00,,,-99.99,67.0,HOBO +U30 +Weather +,2013-05-17 22:23:00,
2013-05-17 18:32:00,59.9,43.6,30.04,East,101,0.9,6.7,54,0.00,,,-99.99,97.0,HOBO +U30 +Weather +,2013-05-17 22:32:00,
2013-05-17 18:33:00,60.5,42.7,30.04,ESE,108,0.9,6.7,51,0.00,,,-99.99,217.0,HOBO +U30 +Weather +,2013-05-17 22:33:00,
2013-05-17 18:42:00,58.2,44.9,30.04,East,101,0.9,6.7,61,0.00,,,-99.99,44.0,HOBO +U30 +Weather +,2013-05-17 22:42:00,
2013-05-17 18:43:00,59.9,44.3,30.04,East,101,0.9,6.7,56,0.00,,,-99.99,61.0,HOBO +U30 +Weather +,2013-05-17 22:43:00,
2013-05-17 18:52:00,57.1,45.9,30.05,East,101,0.9,6.7,66,0.00,,,-99.99,74.0,HOBO +U30 +Weather +,2013-05-17 22:52:00,
2013-05-17 18:53:00,57.8,44.7,30.05,East,101,0.9,6.7,61,0.00,,,-99.99,63.0,HOBO +U30 +Weather +,2013-05-17 22:53:00,
2013-05-17 18:54:00,56.9,45.9,30.04,East,101,0.9,6.7,66,0.00,,,-99.99,102.0,HOBO +U30 +Weather +,2013-05-17 22:54:00,
2013-05-17 19:02:00,56.3,45.3,30.05,East,101,0.9,6.7,66,0.00,,,-99.99,39.0,HOBO +U30 +Weather +,2013-05-17 23:02:00,
2013-05-17 19:03:00,56.2,45.1,30.04,East,101,0.9,6.7,66,0.00,,,-99.99,39.0,HOBO +U30 +Weather +,2013-05-17 23:03:00,
2013-05-17 19:04:00,56.7,45.9,30.05,East,101,0.9,6.7,66,0.00,,,-99.99,108.0,HOBO +U30 +Weather +,2013-05-17 23:04:00,
2013-05-17 19:12:00,59.2,44.5,30.06,SSE,149,0.9,6.7,58,0.00,,,-99.99,38.0,HOBO +U30 +Weather +,2013-05-17 23:12:00,
2013-05-17 19:14:00,56.5,44.5,30.05,East,101,0.9,6.7,64,0.00,,,-99.99,37.0,HOBO +U30 +Weather +,2013-05-17 23:14:00,
2013-05-17 19:22:00,58.9,44.7,30.05,SSE,149,0.9,6.7,59,0.00,,,-99.99,39.0,HOBO +U30 +Weather +,2013-05-17 23:22:00,
2013-05-17 19:32:00,57.8,46.5,30.06,West,260,0.9,6.7,66,0.00,,,-99.99,23.0,HOBO +U30 +Weather +,2013-05-17 23:32:00,
2013-05-17 19:42:00,57.1,46.2,30.06,WSW,239,0.9,6.7,66,0.00,,,-99.99,21.0,HOBO +U30 +Weather +,2013-05-17 23:42:00,
2013-05-17 19:52:00,56.5,46.7,30.06,SW,234,0.9,6.7,69,0.00,,,-99.99,13.0,HOBO +U30 +Weather +,2013-05-17 23:52:00,
2013-05-17 20:02:00,55.6,46.6,30.07,WSW,240,0.9,6.7,71,0.00,,,-99.99,6.0,HOBO +U30 +Weather +,2013-05-18 00:02:00,
2013-05-17 20:12:00,54.8,46.7,30.08,West,275,0.9,6.7,74,0.00,,,-99.99,2.0,HOBO +U30 +Weather +,2013-05-18 00:12:00,
2013-05-17 20:22:00,54.0,46.3,30.08,SW,229,0.9,6.7,75,0.00,,,-99.99,1.0,HOBO +U30 +Weather +,2013-05-18 00:22:00,
2013-05-17 20:32:00,52.7,46.2,30.09,SSW,209,0.9,6.7,78,0.00,,,-99.99,1.0,HOBO +U30 +Weather +,2013-05-18 00:32:00,
2013-05-17 20:33:00,53.8,46.4,30.09,SSW,209,0.9,6.7,75,0.00,,,-99.99,1.0,HOBO +U30 +Weather +,2013-05-18 00:33:00,
2013-05-17 20:42:00,52.2,45.9,30.09,SSW,209,0.9,6.7,78,0.00,,,-99.99,1.0,HOBO +U30 +Weather +,2013-05-18 00:42:00,
2013-05-17 20:43:00,52.6,46.1,30.09,SSW,209,0.9,6.7,78,0.00,,,-99.99,1.0,HOBO +U30 +Weather +,2013-05-18 00:43:00,
2013-05-17 20:52:00,51.6,45.5,30.10,SSW,209,0.9,6.7,79,0.00,,,-99.99,1.0,HOBO +U30 +Weather +,2013-05-18 00:52:00,
2013-05-17 20:53:00,52.0,45.8,30.09,SSW,209,0.9,6.7,79,0.00,,,-99.99,1.0,HOBO +U30 +Weather +,2013-05-18 00:53:00,
2013-05-17 21:02:00,49.5,44.5,30.11,SSW,209,0.9,6.7,82,0.00,,,-99.99,1.0,HOBO +U30 +Weather +,2013-05-18 01:02:00,
2013-05-17 21:03:00,51.2,45.3,30.11,SSW,209,0.9,6.7,80,0.00,,,-99.99,1.0,HOBO +U30 +Weather +,2013-05-18 01:03:00,
2013-05-17 21:12:00,49.4,44.5,30.12,SSW,209,0.9,6.7,83,0.00,,,-99.99,1.0,HOBO +U30 +Weather +,2013-05-18 01:12:00,
2013-05-17 21:13:00,49.9,45.2,30.11,SSW,209,0.9,6.7,83,0.00,,,-99.99,1.0,HOBO +U30 +Weather +,2013-05-18 01:13:00,
2013-05-17 21:22:00,48.9,45.0,30.12,South,190,0.9,6.7,86,0.00,,,-99.99,1.0,HOBO +U30 +Weather +,2013-05-18 01:22:00,
2013-05-17 21:23:00,49.0,44.3,30.11,SSW,209,0.9,6.7,83,0.00,,,-99.99,1.0,HOBO +U30 +Weather +,2013-05-18 01:23:00,
2013-05-17 21:32:00,48.0,44.0,30.12,South,175,0.9,6.7,85,0.00,,,-99.99,1.0,HOBO +U30 +Weather +,2013-05-18 01:32:00,
2013-05-17 21:33:00,49.5,45.2,30.12,South,175,0.9,6.7,85,0.00,,,-99.99,1.0,HOBO +U30 +Weather +,2013-05-18 01:33:00,
2013-05-17 21:42:00,47.4,44.0,30.13,South,175,0.9,6.7,88,0.00,,,-99.99,1.0,HOBO +U30 +Weather +,2013-05-18 01:42:00,
2013-05-17 21:43:00,47.8,44.0,30.13,South,175,0.9,6.7,86,0.00,,,-99.99,1.0,HOBO +U30 +Weather +,2013-05-18 01:43:00,
2013-05-17 21:53:00,47.3,44.0,30.13,South,175,0.9,6.7,88,0.00,,,-99.99,1.0,HOBO +U30 +Weather +,2013-05-18 01:53:00,
2013-05-17 21:55:00,46.8,43.8,30.13,South,175,0.9,6.7,89,0.00,,,-99.99,1.0,HOBO +U30 +Weather +,2013-05-18 01:55:00,
2013-05-17 21:56:00,46.7,43.8,30.13,South,175,0.9,6.7,89,0.00,,,-99.99,1.0,HOBO +U30 +Weather +,2013-05-18 01:56:00,
2013-05-17 22:05:00,46.7,44.0,30.14,South,175,0.9,6.7,90,0.00,,,-99.99,1.0,HOBO +U30 +Weather +,2013-05-18 02:05:00,
2013-05-17 22:06:00,46.7,43.7,30.13,South,175,0.9,6.7,89,0.00,,,-99.99,1.0,HOBO +U30 +Weather +,2013-05-18 02:06:00,
2013-05-17 22:15:00,46.5,43.8,30.14,South,175,0.9,6.7,90,0.00,,,-99.99,1.0,HOBO +U30 +Weather +,2013-05-18 02:15:00,
2013-05-17 22:16:00,46.7,44.0,30.14,South,175,0.9,6.7,90,0.00,,,-99.99,1.0,HOBO +U30 +Weather +,2013-05-18 02:16:00,
2013-05-17 22:25:00,46.5,43.9,30.14,South,175,0.9,6.7,90,0.00,,,-99.99,1.0,HOBO +U30 +Weather +,2013-05-18 02:25:00,
2013-05-17 22:26:00,46.5,43.8,30.14,South,175,0.9,6.7,90,0.00,,,-99.99,1.0,HOBO +U30 +Weather +,2013-05-18 02:26:00,
2013-05-17 22:35:00,46.5,43.9,30.14,South,175,0.9,6.7,90,0.00,,,-99.99,1.0,HOBO +U30 +Weather +,2013-05-18 02:35:00,
2013-05-17 22:36:00,46.5,43.9,30.14,South,175,0.9,6.7,90,0.00,,,-99.99,1.0,HOBO +U30 +Weather +,2013-05-18 02:36:00,
2013-05-17 22:45:00,46.6,44.0,30.14,South,175,0.9,6.7,90,0.00,,,-99.99,1.0,HOBO +U30 +Weather +,2013-05-18 02:45:00,
2013-05-17 22:46:00,46.6,44.0,30.14,South,175,0.9,6.7,90,0.00,,,-99.99,1.0,HOBO +U30 +Weather +,2013-05-18 02:46:00,
2013-05-17 22:55:00,46.3,43.7,30.14,South,175,0.9,6.7,90,0.00,,,-99.99,1.0,HOBO +U30 +Weather +,2013-05-18 02:55:00,
2013-05-17 22:56:00,46.7,44.1,30.14,South,175,0.9,6.7,90,0.00,,,-99.99,1.0,HOBO +U30 +Weather +,2013-05-18 02:56:00,
2013-05-17 23:05:00,46.2,43.6,30.14,South,175,0.9,6.7,90,0.00,,,-99.99,1.0,HOBO +U30 +Weather +,2013-05-18 03:05:00,
2013-05-17 23:15:00,45.0,42.6,30.14,South,175,0.9,6.7,91,0.00,,,-99.99,1.0,HOBO +U30 +Weather +,2013-05-18 03:15:00,
2013-05-17 23:25:00,44.3,42.2,30.15,South,175,0.9,6.7,92,0.00,,,-99.99,1.0,HOBO +U30 +Weather +,2013-05-18 03:25:00,
2013-05-17 23:35:00,43.9,42.0,30.14,South,175,0.9,6.7,93,0.00,,,-99.99,1.0,HOBO +U30 +Weather +,2013-05-18 03:35:00,
2013-05-17 23:36:00,44.8,42.9,30.15,South,175,0.9,6.7,92,0.00,,,-99.99,1.0,HOBO +U30 +Weather +,2013-05-18 03:36:00,
2013-05-17 23:45:00,43.9,42.2,30.14,South,175,0.9,6.7,93,0.00,,,-99.99,1.0,HOBO +U30 +Weather +,2013-05-18 03:45:00,
2013-05-17 23:46:00,44.0,42.2,30.14,South,175,0.9,6.7,93,0.00,,,-99.99,1.0,HOBO +U30 +Weather +,2013-05-18 03:46:00,
2013-05-17 23:55:00,44.1,42.4,30.14,South,175,0.9,6.7,93,0.00,,,-99.99,1.0,HOBO +U30 +Weather +,2013-05-18 03:55:00,
2013-05-17 23:56:00,43.5,41.7,30.15,South,175,0.9,6.7,93,0.00,,,-99.99,1.0,HOBO +U30 +Weather +,2013-05-18 03:56:00,
2013-05-17 23:57:00,43.4,41.5,30.14,South,175,0.9,6.7,93,0.00,,,-99.99,1.0,HOBO +U30 +Weather +,2013-05-18 03:57:00,